Time;durP1;ratioP1;P1;durP2;ratioP2;P2;SDS_P1;SDS_P2;PMS_P1;PMS_P2;Temp;Humidity;BMP_temperature;BMP_pressure;BME280_temperature;BME280_humidity;BME280_pressure;Samples;Min_cycle;Max_cycle;Signal;HPM_P1;HPM_P2
2023/09/22 00:02:02;;;;;;;1.70;0.60;;;;;;;;;;5130179;27;20225;-62
2023/09/22 00:04:29;;;;;;;0.40;0.40;;;;;;;;;;5116965;27;20290;-63
2023/09/22 00:06:56;;;;;;;0.50;0.50;;;;;;;;;;5117577;27;20912;-62
2023/09/22 00:09:23;;;;;;;0.60;0.60;;;;;;;;;;5124758;27;20586;-62
2023/09/22 00:11:50;;;;;;;0.50;0.50;;;;;;;;;;5118792;27;20701;-61
2023/09/22 00:14:19;;;;;;;2.30;0.88;;;;;;;;;;5121451;27;20208;-61
2023/09/22 00:16:46;;;;;;;1.48;0.52;;;;;;;;;;5124197;27;20224;-62
2023/09/22 00:19:14;;;;;;;2.92;0.50;;;;;;;;;;5123861;27;20698;-62
2023/09/22 00:21:41;;;;;;;0.90;0.60;;;;;;;;;;5125168;27;20212;-61
2023/09/22 00:24:09;;;;;;;0.50;0.50;;;;;;;;;;5123807;27;20243;-62
2023/09/22 00:26:36;;;;;;;0.60;0.60;;;;;;;;;;5118848;27;20212;-62
2023/09/22 00:29:03;;;;;;;1.27;0.60;;;;;;;;;;5119759;27;20205;-61
2023/09/22 00:31:31;;;;;;;0.65;0.50;;;;;;;;;;5126354;27;20666;-61
2023/09/22 00:33:58;;;;;;;0.52;0.52;;;;;;;;;;5116504;27;20213;-61
2023/09/22 00:36:26;;;;;;;0.75;0.52;;;;;;;;;;5126791;27;20213;-62
2023/09/22 00:38:53;;;;;;;0.60;0.60;;;;;;;;;;5122485;27;20221;-61
2023/09/22 00:41:20;;;;;;;1.17;0.73;;;;;;;;;;5106878;28;20694;-61
2023/09/22 00:43:47;;;;;;;1.23;0.75;;;;;;;;;;5114601;27;20236;-62
2023/09/22 00:46:16;;;;;;;1.70;0.80;;;;;;;;;;5124332;27;20205;-62
2023/09/22 00:48:44;;;;;;;0.63;0.63;;;;;;;;;;5127269;27;20225;-61
2023/09/22 00:51:11;;;;;;;1.25;0.57;;;;;;;;;;5124682;27;20217;-61
2023/09/22 00:53:39;;;;;;;0.70;0.70;;;;;;;;;;5109273;27;20197;-62
2023/09/22 00:56:06;;;;;;;0.90;0.60;;;;;;;;;;5107271;27;20229;-62
2023/09/22 00:58:34;;;;;;;2.28;0.80;;;;;;;;;;5116407;27;20741;-62
2023/09/22 01:01:01;;;;;;;0.50;0.50;;;;;;;;;;5117298;27;20374;-62
2023/09/22 01:03:29;;;;;;;0.50;0.50;;;;;;;;;;5118654;27;20604;-62
2023/09/22 01:05:58;;;;;;;0.60;0.60;;;;;;;;;;5114036;27;20206;-63
2023/09/22 01:08:25;;;;;;;0.73;0.73;;;;;;;;;;5107798;27;20214;-62
2023/09/22 01:10:52;;;;;;;0.80;0.50;;;;;;;;;;5110567;27;20202;-63
2023/09/22 01:13:19;;;;;;;0.82;0.50;;;;;;;;;;5107730;27;20563;-63
2023/09/22 01:15:46;;;;;;;0.50;0.50;;;;;;;;;;5118785;27;20215;-63
2023/09/22 01:18:14;;;;;;;0.70;0.70;;;;;;;;;;5119642;27;20206;-63
2023/09/22 01:20:43;;;;;;;0.68;0.50;;;;;;;;;;5109341;27;20241;-63
2023/09/22 01:23:13;;;;;;;0.75;0.57;;;;;;;;;;5126485;27;20224;-63
2023/09/22 01:25:40;;;;;;;0.60;0.60;;;;;;;;;;5113585;27;20252;-62
2023/09/22 01:28:07;;;;;;;0.63;0.40;;;;;;;;;;5113527;27;20205;-63
2023/09/22 01:30:34;;;;;;;0.68;0.68;;;;;;;;;;5111884;27;20457;-63
2023/09/22 01:33:03;;;;;;;0.50;0.50;;;;;;;;;;5114962;27;20202;-64
2023/09/22 01:35:32;;;;;;;2.95;0.57;;;;;;;;;;5119068;27;20361;-63
2023/09/22 01:38:07;;;;;;;0.45;0.45;;;;;;;;;;5124835;27;20204;-63
2023/09/22 01:40:35;;;;;;;0.50;0.50;;;;;;;;;;5123148;27;20213;-63
2023/09/22 01:43:03;;;;;;;0.77;0.63;;;;;;;;;;5107673;28;20257;-63
2023/09/22 01:45:31;;;;;;;0.65;0.57;;;;;;;;;;5106034;28;20301;-63
2023/09/22 01:47:58;;;;;;;0.60;0.60;;;;;;;;;;5107693;28;20213;-63
2023/09/22 01:50:25;;;;;;;1.38;0.85;;;;;;;;;;5105761;27;20213;-63
2023/09/22 01:52:53;;;;;;;0.55;0.55;;;;;;;;;;5104471;27;20292;-63
2023/09/22 01:55:20;;;;;;;1.33;0.65;;;;;;;;;;5102323;27;20200;-63
2023/09/22 01:57:49;;;;;;;4.03;0.77;;;;;;;;;;5108138;27;20221;-61
2023/09/22 02:00:18;;;;;;;0.47;0.47;;;;;;;;;;5118297;27;20250;-61
2023/09/22 02:02:45;;;;;;;0.85;0.50;;;;;;;;;;5104074;27;20631;-62
2023/09/22 02:05:14;;;;;;;0.70;0.70;;;;;;;;;;5109694;27;20197;-62
2023/09/22 02:07:41;;;;;;;0.95;0.70;;;;;;;;;;5108334;27;20212;-62
2023/09/22 02:10:10;;;;;;;0.52;0.52;;;;;;;;;;5105007;27;20213;-62
2023/09/22 02:12:37;;;;;;;0.82;0.82;;;;;;;;;;5107392;27;20228;-63
2023/09/22 02:15:07;;;;;;;0.60;0.60;;;;;;;;;;5107011;27;20296;-62
2023/09/22 02:17:34;;;;;;;0.88;0.88;;;;;;;;;;5113147;27;20461;-62
2023/09/22 02:20:05;;;;;;;0.65;0.50;;;;;;;;;;5123664;27;20207;-61
2023/09/22 02:22:32;;;;;;;0.73;0.63;;;;;;;;;;5106730;27;20312;-61
2023/09/22 02:24:59;;;;;;;1.40;0.82;;;;;;;;;;5123256;27;20209;-61
2023/09/22 02:27:26;;;;;;;2.33;0.63;;;;;;;;;;5104777;27;20220;-63
2023/09/22 02:29:53;;;;;;;2.45;0.60;;;;;;;;;;5109031;27;20719;-63
2023/09/22 02:32:22;;;;;;;1.75;0.50;;;;;;;;;;5111443;27;20209;-63
2023/09/22 02:34:50;;;;;;;0.73;0.50;;;;;;;;;;5109118;27;20212;-63
2023/09/22 02:37:17;;;;;;;2.90;0.50;;;;;;;;;;5117962;27;20283;-63
2023/09/22 02:39:44;;;;;;;5.70;1.02;;;;;;;;;;5126314;27;20208;-63
2023/09/22 02:42:13;;;;;;;1.33;0.60;;;;;;;;;;5124413;27;20622;-63
2023/09/22 02:44:41;;;;;;;3.20;0.68;;;;;;;;;;5106380;28;20209;-63
2023/09/22 02:47:18;;;;;;;0.63;0.63;;;;;;;;;;5104160;28;20208;-61
2023/09/22 02:49:47;;;;;;;1.85;0.50;;;;;;;;;;5106478;28;20221;-61
2023/09/22 02:52:14;;;;;;;2.97;0.60;;;;;;;;;;5107797;27;20300;-62
2023/09/22 02:54:41;;;;;;;0.77;0.77;;;;;;;;;;5124563;27;20211;-61
2023/09/22 02:57:08;;;;;;;0.93;0.68;;;;;;;;;;5124005;27;20236;-61
2023/09/22 02:59:35;;;;;;;0.70;0.70;;;;;;;;;;5119502;27;20675;-61
2023/09/22 03:02:02;;;;;;;0.50;0.50;;;;;;;;;;5120660;27;20209;-61
2023/09/22 03:04:31;;;;;;;1.50;0.63;;;;;;;;;;5103203;27;20260;-61
2023/09/22 03:06:59;;;;;;;0.95;0.73;;;;;;;;;;5112161;27;20663;-61
2023/09/22 03:09:26;;;;;;;1.65;0.60;;;;;;;;;;5117453;27;20626;-62
2023/09/22 03:11:53;;;;;;;3.75;0.77;;;;;;;;;;5123063;27;20201;-62
2023/09/22 03:14:20;;;;;;;0.88;0.88;;;;;;;;;;5108590;27;20197;-61
2023/09/22 03:16:48;;;;;;;1.30;0.80;;;;;;;;;;5118241;27;20223;-61
2023/09/22 03:19:15;;;;;;;0.90;0.52;;;;;;;;;;5116570;27;20228;-61
2023/09/22 03:21:42;;;;;;;0.70;0.70;;;;;;;;;;5108972;27;20198;-61
2023/09/22 03:24:11;;;;;;;1.23;0.95;;;;;;;;;;5102392;28;20222;-61
2023/09/22 03:26:39;;;;;;;0.88;0.88;;;;;;;;;;5104756;28;20266;-62
2023/09/22 03:29:06;;;;;;;1.20;0.70;;;;;;;;;;5113016;27;20706;-61
2023/09/22 03:31:33;;;;;;;0.80;0.80;;;;;;;;;;5112318;27;20201;-61
2023/09/22 03:34:02;;;;;;;1.98;0.57;;;;;;;;;;5116875;27;20212;-61
2023/09/22 03:36:30;;;;;;;0.55;0.55;;;;;;;;;;5113968;27;20205;-61
2023/09/22 03:38:57;;;;;;;1.35;0.60;;;;;;;;;;5105480;28;20201;-62
2023/09/22 03:41:28;;;;;;;0.63;0.63;;;;;;;;;;5109943;27;20225;-62
2023/09/22 03:43:55;;;;;;;1.40;0.73;;;;;;;;;;5105433;28;20236;-62
2023/09/22 03:46:23;;;;;;;0.60;0.60;;;;;;;;;;5114046;27;20212;-62
2023/09/22 03:48:50;;;;;;;0.90;0.90;;;;;;;;;;5100920;28;20194;-64
2023/09/22 03:51:17;;;;;;;0.88;0.88;;;;;;;;;;5109612;27;20205;-62
2023/09/22 03:53:45;;;;;;;5.28;0.80;;;;;;;;;;5123744;27;20193;-62
2023/09/22 03:56:12;;;;;;;1.33;0.75;;;;;;;;;;5123813;27;20235;-62
2023/09/22 03:58:41;;;;;;;2.60;0.98;;;;;;;;;;5107742;27;20683;-62
2023/09/22 04:01:09;;;;;;;2.35;0.75;;;;;;;;;;5100318;28;20209;-62
2023/09/22 04:03:36;;;;;;;0.73;0.63;;;;;;;;;;5119259;27;20271;-61
2023/09/22 04:06:05;;;;;;;1.58;0.75;;;;;;;;;;5116958;27;20237;-62
2023/09/22 04:08:33;;;;;;;1.40;0.82;;;;;;;;;;5104867;27;20247;-61
2023/09/22 04:11:02;;;;;;;1.23;0.77;;;;;;;;;;5106927;27;20213;-61
2023/09/22 04:13:29;;;;;;;1.80;0.90;;;;;;;;;;5109337;27;20198;-62
2023/09/22 04:16:00;;;;;;;1.65;0.80;;;;;;;;;;5108772;28;20209;-62
2023/09/22 04:18:29;;;;;;;2.30;0.70;;;;;;;;;;5104833;28;20209;-61
2023/09/22 04:20:56;;;;;;;1.02;0.70;;;;;;;;;;5116626;27;20209;-64
2023/09/22 04:23:24;;;;;;;0.73;0.63;;;;;;;;;;5104266;28;20839;-61
2023/09/22 04:25:54;;;;;;;1.85;0.73;;;;;;;;;;5115887;27;20568;-62
2023/09/22 04:28:23;;;;;;;0.63;0.63;;;;;;;;;;5109938;27;20251;-61
2023/09/22 04:30:50;;;;;;;0.70;0.68;;;;;;;;;;5103558;28;20229;-62
2023/09/22 04:33:20;;;;;;;0.70;0.70;;;;;;;;;;5109915;27;20578;-61
2023/09/22 04:35:48;;;;;;;0.80;0.80;;;;;;;;;;5101161;28;20201;-61
2023/09/22 04:38:15;;;;;;;5.78;0.90;;;;;;;;;;5102941;27;20202;-61
2023/09/22 04:40:43;;;;;;;0.60;0.60;;;;;;;;;;5103714;28;20206;-62
2023/09/22 04:43:11;;;;;;;0.77;0.77;;;;;;;;;;5111222;27;20267;-62
2023/09/22 04:45:39;;;;;;;0.70;0.57;;;;;;;;;;5114404;27;20213;-62
2023/09/22 04:48:07;;;;;;;1.20;0.65;;;;;;;;;;5110461;27;20206;-62
2023/09/22 04:50:35;;;;;;;1.50;0.80;;;;;;;;;;5113147;27;20201;-62
2023/09/22 04:53:02;;;;;;;2.67;0.80;;;;;;;;;;5115193;27;20208;-63
2023/09/22 04:55:31;;;;;;;1.80;0.60;;;;;;;;;;5121274;27;20672;-64
2023/09/22 04:57:58;;;;;;;1.70;0.70;;;;;;;;;;5108139;27;20714;-63
2023/09/22 05:00:27;;;;;;;4.53;0.93;;;;;;;;;;5109760;27;20205;-61
2023/09/22 05:02:55;;;;;;;2.90;0.77;;;;;;;;;;5118633;27;20212;-63
2023/09/22 05:05:22;;;;;;;1.05;0.70;;;;;;;;;;5106356;27;20202;-63
2023/09/22 05:07:51;;;;;;;2.90;0.82;;;;;;;;;;5109896;27;20679;-63
2023/09/22 05:10:19;;;;;;;2.60;0.70;;;;;;;;;;5106171;27;20201;-63
2023/09/22 05:12:46;;;;;;;1.33;0.80;;;;;;;;;;5108770;27;20211;-61
2023/09/22 05:15:13;;;;;;;0.77;0.77;;;;;;;;;;5105205;27;20198;-63
2023/09/22 05:17:40;;;;;;;1.33;0.60;;;;;;;;;;5108855;27;20205;-63
2023/09/22 05:20:14;;;;;;;0.60;0.60;;;;;;;;;;5114818;27;20261;-64
2023/09/22 05:22:41;;;;;;;0.77;0.77;;;;;;;;;;5123798;27;20269;-63
2023/09/22 05:25:12;;;;;;;4.22;0.95;;;;;;;;;;5119211;27;20589;-63
2023/09/22 05:27:40;;;;;;;3.30;0.85;;;;;;;;;;5119331;27;20205;-63
2023/09/22 05:30:08;;;;;;;2.05;0.90;;;;;;;;;;5107456;27;20208;-62
2023/09/22 05:32:35;;;;;;;1.38;0.82;;;;;;;;;;5122663;27;20224;-62
2023/09/22 05:35:02;;;;;;;7.65;2.40;;;;;;;;;;5113542;27;20217;-67
2023/09/22 05:37:31;;;;;;;2.45;1.40;;;;;;;;;;5124122;27;20288;-67
2023/09/22 05:39:58;;;;;;;1.10;1.00;;;;;;;;;;5120548;27;20225;-67
2023/09/22 05:42:28;;;;;;;2.17;0.95;;;;;;;;;;5104436;28;20214;-67
2023/09/22 05:44:55;;;;;;;1.50;0.80;;;;;;;;;;5102766;28;20722;-67
2023/09/22 05:47:23;;;;;;;1.80;0.80;;;;;;;;;;5100152;27;20214;-67
2023/09/22 05:49:50;;;;;;;3.92;0.70;;;;;;;;;;5117037;27;20270;-67
2023/09/22 05:52:18;;;;;;;1.40;1.02;;;;;;;;;;5118821;27;20297;-67
2023/09/22 05:54:47;;;;;;;3.42;0.90;;;;;;;;;;5106579;27;20208;-66
2023/09/22 05:57:14;;;;;;;0.75;0.75;;;;;;;;;;5105464;28;20487;-67
2023/09/22 05:59:43;;;;;;;0.80;0.80;;;;;;;;;;5124963;27;20213;-66
2023/09/22 06:02:11;;;;;;;1.30;1.20;;;;;;;;;;5126141;27;20212;-66
2023/09/22 06:04:38;;;;;;;1.95;0.77;;;;;;;;;;5127694;27;20295;-60
2023/09/22 06:07:12;;;;;;;0.98;0.90;;;;;;;;;;5127521;27;20209;-62
2023/09/22 06:09:39;;;;;;;2.70;1.00;;;;;;;;;;5113416;27;20235;-62
2023/09/22 06:12:07;;;;;;;1.38;0.80;;;;;;;;;;5117747;27;20220;-62
2023/09/22 06:14:34;;;;;;;1.00;0.88;;;;;;;;;;5107097;28;20202;-62
2023/09/22 06:17:02;;;;;;;5.10;0.80;;;;;;;;;;5122262;27;20217;-62
2023/09/22 06:19:29;;;;;;;0.77;0.60;;;;;;;;;;5121518;27;20227;-62
2023/09/22 06:21:57;;;;;;;1.20;0.70;;;;;;;;;;5123961;27;20209;-62
2023/09/22 06:24:24;;;;;;;5.95;0.90;;;;;;;;;;5104481;28;20313;-63
2023/09/22 06:26:52;;;;;;;0.93;0.93;;;;;;;;;;5109593;27;20224;-62
2023/09/22 06:29:21;;;;;;;2.60;0.77;;;;;;;;;;5113006;27;20202;-62
2023/09/22 06:31:48;;;;;;;0.90;0.50;;;;;;;;;;5109469;27;20586;-62
2023/09/22 06:34:17;;;;;;;1.17;0.60;;;;;;;;;;5113557;27;20202;-63
2023/09/22 06:36:45;;;;;;;1.50;0.55;;;;;;;;;;5123719;27;20216;-62
2023/09/22 06:39:12;;;;;;;0.65;0.65;;;;;;;;;;5125348;27;20205;-62
2023/09/22 06:41:39;;;;;;;0.80;0.80;;;;;;;;;;5124875;27;20201;-63
2023/09/22 06:44:06;;;;;;;0.50;0.50;;;;;;;;;;5115774;27;20218;-63
2023/09/22 06:46:35;;;;;;;0.63;0.60;;;;;;;;;;5106398;28;20703;-62
2023/09/22 06:49:04;;;;;;;2.88;0.52;;;;;;;;;;5104852;28;20209;-62
2023/09/22 06:51:33;;;;;;;1.25;0.70;;;;;;;;;;5107792;27;20747;-62
2023/09/22 06:54:00;;;;;;;0.85;0.77;;;;;;;;;;5121224;27;20232;-62
2023/09/22 06:56:27;;;;;;;1.30;0.50;;;;;;;;;;5113292;27;20703;-62
2023/09/22 06:58:54;;;;;;;0.68;0.50;;;;;;;;;;5106385;28;20213;-62
2023/09/22 07:01:21;;;;;;;0.85;0.50;;;;;;;;;;5104747;28;20227;-62
2023/09/22 07:03:49;;;;;;;2.00;0.50;;;;;;;;;;5122204;27;20236;-62
2023/09/22 07:06:16;;;;;;;3.13;0.57;;;;;;;;;;5115892;27;20246;-62
2023/09/22 07:08:46;;;;;;;3.67;0.70;;;;;;;;;;5117425;27;20212;-62
2023/09/22 07:11:13;;;;;;;0.68;0.50;;;;;;;;;;5115661;27;20299;-62
2023/09/22 07:13:41;;;;;;;1.77;0.50;;;;;;;;;;5126692;27;20674;-62
2023/09/22 07:16:08;;;;;;;5.20;0.70;;;;;;;;;;5118544;27;20651;-62
2023/09/22 07:18:35;;;;;;;0.40;0.40;;;;;;;;;;5126822;27;20594;-62
2023/09/22 07:21:02;;;;;;;0.50;0.50;;;;;;;;;;5118690;27;20216;-62
2023/09/22 07:23:30;;;;;;;0.60;0.60;;;;;;;;;;5115575;27;20223;-62
2023/09/22 07:26:03;;;;;;;1.10;0.80;;;;;;;;;;5102374;28;20230;-63
2023/09/22 07:28:30;;;;;;;0.50;0.50;;;;;;;;;;5111599;28;20209;-63
2023/09/22 07:30:58;;;;;;;0.68;0.68;;;;;;;;;;5112580;27;20208;-62
2023/09/22 07:33:30;;;;;;;2.08;0.68;;;;;;;;;;5108852;27;20205;-62
2023/09/22 07:35:58;;;;;;;2.75;0.55;;;;;;;;;;5108211;27;20198;-63
2023/09/22 07:38:26;;;;;;;2.72;0.60;;;;;;;;;;5106036;28;20205;-63
2023/09/22 07:40:53;;;;;;;0.40;0.40;;;;;;;;;;5105869;28;20212;-64
2023/09/22 07:43:28;;;;;;;0.85;0.70;;;;;;;;;;5120331;27;20208;-63
2023/09/22 07:45:55;;;;;;;0.55;0.55;;;;;;;;;;5116414;27;20249;-63
2023/09/22 07:48:22;;;;;;;0.50;0.50;;;;;;;;;;5120536;28;20220;-65
2023/09/22 07:50:49;;;;;;;1.50;0.70;;;;;;;;;;5119808;27;20213;-65
2023/09/22 07:53:18;;;;;;;2.92;0.70;;;;;;;;;;5103887;28;20221;-64
2023/09/22 07:55:47;;;;;;;0.73;0.60;;;;;;;;;;5116461;28;20201;-63
2023/09/22 07:58:14;;;;;;;0.63;0.63;;;;;;;;;;5123088;27;20250;-61
2023/09/22 08:00:46;;;;;;;0.60;0.60;;;;;;;;;;5125726;27;20813;-59
2023/09/22 08:03:13;;;;;;;0.50;0.50;;;;;;;;;;5115046;27;20225;-60
2023/09/22 08:05:40;;;;;;;1.27;0.57;;;;;;;;;;5125293;28;20232;-62
2023/09/22 08:08:10;;;;;;;0.63;0.60;;;;;;;;;;5120903;27;20693;-63
2023/09/22 08:10:38;;;;;;;0.70;0.70;;;;;;;;;;5119672;27;20209;-63
2023/09/22 08:13:07;;;;;;;0.50;0.50;;;;;;;;;;5122514;27;20202;-62
2023/09/22 08:15:34;;;;;;;0.98;0.43;;;;;;;;;;5123652;27;20673;-65
2023/09/22 08:18:05;;;;;;;1.52;0.65;;;;;;;;;;5117943;27;21131;-63
2023/09/22 08:20:32;;;;;;;1.63;0.50;;;;;;;;;;5117571;27;20566;-63
2023/09/22 08:22:59;;;;;;;4.47;0.50;;;;;;;;;;5122881;27;20201;-63
2023/09/22 08:25:27;;;;;;;1.38;0.50;;;;;;;;;;5126153;27;20725;-64
2023/09/22 08:27:54;;;;;;;0.63;0.63;;;;;;;;;;5108257;28;20230;-63
2023/09/22 08:30:21;;;;;;;4.15;0.77;;;;;;;;;;5107499;27;20290;-64
2023/09/22 08:32:49;;;;;;;2.20;0.50;;;;;;;;;;5128175;27;20216;-64
2023/09/22 08:35:17;;;;;;;0.60;0.57;;;;;;;;;;5127344;27;20232;-63
2023/09/22 08:37:44;;;;;;;0.35;0.35;;;;;;;;;;5128342;27;20209;-63
2023/09/22 08:40:14;;;;;;;0.43;0.43;;;;;;;;;;5125604;27;20201;-64
2023/09/22 08:42:43;;;;;;;1.05;0.75;;;;;;;;;;5109870;27;20229;-63
2023/09/22 08:45:11;;;;;;;0.40;0.40;;;;;;;;;;5113075;27;20221;-63
2023/09/22 08:47:40;;;;;;;0.47;0.47;;;;;;;;;;5102907;28;20209;-63
2023/09/22 08:50:11;;;;;;;5.13;0.57;;;;;;;;;;5105891;27;20209;-64
2023/09/22 08:52:40;;;;;;;0.65;0.43;;;;;;;;;;5104287;28;20228;-63
2023/09/22 08:55:10;;;;;;;0.75;0.40;;;;;;;;;;5113200;27;20757;-63
2023/09/22 08:57:38;;;;;;;1.88;0.88;;;;;;;;;;5126212;27;20227;-64
2023/09/22 09:00:10;;;;;;;1.63;0.57;;;;;;;;;;5120811;27;20205;-64
2023/09/22 09:02:38;;;;;;;1.45;0.50;;;;;;;;;;5115300;27;20216;-64
2023/09/22 09:05:18;;;;;;;1.55;0.50;;;;;;;;;;5107623;27;20706;-64
2023/09/22 09:07:47;;;;;;;0.40;0.40;;;;;;;;;;5113063;27;20201;-64
2023/09/22 09:10:25;;;;;;;0.38;0.38;;;;;;;;;;5120762;27;20220;-64
2023/09/22 09:12:52;;;;;;;0.50;0.50;;;;;;;;;;5110270;27;20201;-63
2023/09/22 09:15:21;;;;;;;0.50;0.50;;;;;;;;;;5106683;27;20198;-64
2023/09/22 09:18:02;;;;;;;0.80;0.47;;;;;;;;;;5111752;27;20621;-64
2023/09/22 09:20:30;;;;;;;0.57;0.40;;;;;;;;;;5110370;27;20232;-64
2023/09/22 09:22:58;;;;;;;0.40;0.40;;;;;;;;;;5122591;27;20678;-63
2023/09/22 09:25:25;;;;;;;0.55;0.50;;;;;;;;;;5115239;27;20226;-63
2023/09/22 09:28:02;;;;;;;3.03;0.60;;;;;;;;;;5103537;28;20205;-62
2023/09/22 09:30:30;;;;;;;2.33;0.40;;;;;;;;;;5120975;27;20641;-66
2023/09/22 09:33:09;;;;;;;0.38;0.38;;;;;;;;;;5113607;27;20581;-64
2023/09/22 09:35:39;;;;;;;0.30;0.30;;;;;;;;;;5108540;27;20214;-75
2023/09/22 09:38:09;;;;;;;0.50;0.50;;;;;;;;;;5122345;27;20201;-73
2023/09/22 09:40:37;;;;;;;0.38;0.38;;;;;;;;;;5122249;27;20205;-73
2023/09/22 09:43:10;;;;;;;0.77;0.55;;;;;;;;;;5107924;27;20224;-65
2023/09/22 09:45:39;;;;;;;1.75;0.30;;;;;;;;;;5105033;27;20244;-65
2023/09/22 09:48:09;;;;;;;0.40;0.40;;;;;;;;;;5112307;27;20320;-65
2023/09/22 09:50:37;;;;;;;2.75;0.28;;;;;;;;;;5108210;27;20213;-65
2023/09/22 09:53:07;;;;;;;0.40;0.40;;;;;;;;;;5115849;27;20204;-65
2023/09/22 09:55:36;;;;;;;1.85;0.47;;;;;;;;;;5104788;27;20224;-65
2023/09/22 09:58:04;;;;;;;1.75;0.40;;;;;;;;;;5106033;27;20305;-65
2023/09/22 10:00:35;;;;;;;1.83;0.60;;;;;;;;;;5110723;27;20232;-65
2023/09/22 10:03:03;;;;;;;1.20;0.60;;;;;;;;;;5118043;27;20266;-65
2023/09/22 10:05:32;;;;;;;2.65;0.47;;;;;;;;;;5107708;27;20228;-65
2023/09/22 10:08:00;;;;;;;1.38;0.28;;;;;;;;;;5117024;27;20238;-65
2023/09/22 10:10:28;;;;;;;0.40;0.40;;;;;;;;;;5123109;27;20212;-65
2023/09/22 10:12:57;;;;;;;1.15;0.50;;;;;;;;;;5124976;27;20201;-64
2023/09/22 10:15:42;;;;;;;5.55;0.70;;;;;;;;;;5114233;27;20304;-65
2023/09/22 10:18:12;;;;;;;2.38;0.45;;;;;;;;;;5101064;28;20197;-66
2023/09/22 10:20:44;;;;;;;1.55;0.40;;;;;;;;;;5109712;27;20205;-66
2023/09/22 10:23:16;;;;;;;1.17;0.40;;;;;;;;;;5122865;27;20211;-66
2023/09/22 10:25:43;;;;;;;0.50;0.30;;;;;;;;;;5112961;27;20278;-66
2023/09/22 10:28:27;;;;;;;1.38;0.40;;;;;;;;;;5116700;27;20213;-66
2023/09/22 10:31:07;;;;;;;0.43;0.30;;;;;;;;;;5118736;27;20257;-65
2023/09/22 10:33:34;;;;;;;2.42;0.50;;;;;;;;;;5124186;27;20213;-66
2023/09/22 10:36:01;;;;;;;1.15;0.40;;;;;;;;;;5113574;27;20315;-66
2023/09/22 10:38:28;;;;;;;5.93;0.52;;;;;;;;;;5122544;27;20197;-65
2023/09/22 10:41:07;;;;;;;3.00;0.43;;;;;;;;;;5110563;27;20205;-67
2023/09/22 10:43:36;;;;;;;0.80;0.30;;;;;;;;;;5121063;27;20211;-68
2023/09/22 10:46:04;;;;;;;1.20;0.43;;;;;;;;;;5123077;27;20232;-65
2023/09/22 10:48:35;;;;;;;0.63;0.30;;;;;;;;;;5121094;27;20216;-65
2023/09/22 10:51:03;;;;;;;0.95;0.40;;;;;;;;;;5101136;27;20205;-62
2023/09/22 10:53:33;;;;;;;1.50;0.65;;;;;;;;;;5100544;28;20217;-73
2023/09/22 10:56:02;;;;;;;0.80;0.40;;;;;;;;;;5112577;27;20197;-65
2023/09/22 10:58:30;;;;;;;3.20;0.98;;;;;;;;;;5124767;27;20202;-65
2023/09/22 11:00:59;;;;;;;1.13;0.40;;;;;;;;;;5109105;27;20258;-65
2023/09/22 11:03:26;;;;;;;1.60;0.40;;;;;;;;;;5116659;27;20339;-69
2023/09/22 11:06:00;;;;;;;1.17;0.50;;;;;;;;;;5111496;27;20282;-68
2023/09/22 11:08:28;;;;;;;0.73;0.43;;;;;;;;;;5113761;27;20200;-69
2023/09/22 11:10:56;;;;;;;1.67;0.60;;;;;;;;;;5124866;27;20216;-68
2023/09/22 11:13:24;;;;;;;0.40;0.40;;;;;;;;;;5110779;27;20237;-66
2023/09/22 11:15:56;;;;;;;8.85;1.60;;;;;;;;;;5109353;27;20207;-67
2023/09/22 11:18:25;;;;;;;7.25;2.30;;;;;;;;;;5110919;27;20273;-65
2023/09/22 11:20:57;;;;;;;2.15;1.40;;;;;;;;;;5116548;27;20201;-65
2023/09/22 11:23:24;;;;;;;1.55;0.73;;;;;;;;;;5115204;28;20561;-64
2023/09/22 11:25:55;;;;;;;0.60;0.60;;;;;;;;;;5106725;27;20236;-66
2023/09/22 11:28:22;;;;;;;1.75;0.50;;;;;;;;;;5115780;27;20311;-65
2023/09/22 11:30:51;;;;;;;1.00;0.70;;;;;;;;;;5125602;27;20292;-65
2023/09/22 11:33:18;;;;;;;2.25;0.80;;;;;;;;;;5121102;27;20332;-65
2023/09/22 11:35:47;;;;;;;0.63;0.60;;;;;;;;;;5114984;27;20210;-66
2023/09/22 11:38:27;;;;;;;1.17;0.70;;;;;;;;;;5121646;28;20208;-64
2023/09/22 11:41:02;;;;;;;1.60;0.50;;;;;;;;;;5124330;27;20208;-65
2023/09/22 11:43:29;;;;;;;0.63;0.63;;;;;;;;;;5120125;27;20204;-66
2023/09/22 11:46:05;;;;;;;2.05;0.80;;;;;;;;;;5114016;27;20579;-65
2023/09/22 11:48:32;;;;;;;0.68;0.60;;;;;;;;;;5111745;27;20209;-67
2023/09/22 11:51:01;;;;;;;0.63;0.63;;;;;;;;;;5115669;27;20208;-66
2023/09/22 11:53:28;;;;;;;0.68;0.68;;;;;;;;;;5105126;27;20212;-67
2023/09/22 11:55:56;;;;;;;0.40;0.40;;;;;;;;;;5122403;27;20205;-68
2023/09/22 11:58:23;;;;;;;0.52;0.52;;;;;;;;;;5111436;27;20212;-68
2023/09/22 12:00:51;;;;;;;0.45;0.45;;;;;;;;;;5126393;27;20205;-68
2023/09/22 12:03:19;;;;;;;0.40;0.40;;;;;;;;;;5118057;27;20229;-68
2023/09/22 12:05:46;;;;;;;0.43;0.43;;;;;;;;;;5110457;27;20681;-67
2023/09/22 12:08:15;;;;;;;1.73;0.50;;;;;;;;;;5116851;27;20375;-68
2023/09/22 12:10:42;;;;;;;2.63;0.60;;;;;;;;;;5124174;27;20220;-68
2023/09/22 12:13:09;;;;;;;3.22;0.60;;;;;;;;;;5121808;27;20200;-68
2023/09/22 12:15:36;;;;;;;0.63;0.63;;;;;;;;;;5124005;27;20581;-67
2023/09/22 12:18:04;;;;;;;1.95;0.50;;;;;;;;;;5117423;27;20241;-68
2023/09/22 12:20:32;;;;;;;0.63;0.50;;;;;;;;;;5119176;27;20671;-68
2023/09/22 12:22:59;;;;;;;0.55;0.40;;;;;;;;;;5102800;28;20220;-68
2023/09/22 12:25:27;;;;;;;1.10;0.50;;;;;;;;;;5118882;27;20207;-68
2023/09/22 12:27:54;;;;;;;0.60;0.50;;;;;;;;;;5118709;27;20212;-68
2023/09/22 12:30:21;;;;;;;1.58;0.60;;;;;;;;;;5113222;27;20205;-68
2023/09/22 12:32:48;;;;;;;1.38;0.50;;;;;;;;;;5115163;27;20217;-64
2023/09/22 12:35:15;;;;;;;0.77;0.40;;;;;;;;;;5106897;27;20626;-64
2023/09/22 12:37:42;;;;;;;0.50;0.50;;;;;;;;;;5119894;27;20210;-68
2023/09/22 12:40:10;;;;;;;2.60;0.60;;;;;;;;;;5110343;27;20208;-68
2023/09/22 12:42:38;;;;;;;1.50;0.70;;;;;;;;;;5117382;27;20280;-66
2023/09/22 12:45:06;;;;;;;0.90;0.40;;;;;;;;;;5108964;27;20671;-68
2023/09/22 12:47:33;;;;;;;1.42;0.40;;;;;;;;;;5118373;27;20237;-68
2023/09/22 12:50:04;;;;;;;1.00;0.38;;;;;;;;;;5124331;27;20209;-69
2023/09/22 12:52:32;;;;;;;0.93;0.57;;;;;;;;;;5115681;27;20213;-68
2023/09/22 12:54:59;;;;;;;0.85;0.40;;;;;;;;;;5116923;27;20225;-67
2023/09/22 12:57:28;;;;;;;0.73;0.50;;;;;;;;;;5120225;27;20617;-68
2023/09/22 12:59:57;;;;;;;0.50;0.50;;;;;;;;;;5107557;27;20226;-69
2023/09/22 13:02:25;;;;;;;1.30;0.57;;;;;;;;;;5112352;27;20559;-69
2023/09/22 13:04:52;;;;;;;1.13;0.45;;;;;;;;;;5110681;27;20761;-69
2023/09/22 13:07:19;;;;;;;1.95;0.43;;;;;;;;;;5117101;27;20270;-69
2023/09/22 13:09:46;;;;;;;1.55;0.50;;;;;;;;;;5115681;27;20206;-69
2023/09/22 13:12:14;;;;;;;2.28;0.55;;;;;;;;;;5107144;27;20206;-69
2023/09/22 13:14:41;;;;;;;0.68;0.40;;;;;;;;;;5111369;27;20273;-69
2023/09/22 13:17:12;;;;;;;2.05;0.40;;;;;;;;;;5111352;27;20198;-68
2023/09/22 13:19:39;;;;;;;0.75;0.63;;;;;;;;;;5102993;28;20201;-77
2023/09/22 13:22:06;;;;;;;1.48;0.57;;;;;;;;;;5118373;27;20205;-68
2023/09/22 13:24:33;;;;;;;1.33;0.30;;;;;;;;;;5114071;27;20593;-69
2023/09/22 13:27:00;;;;;;;1.00;0.77;;;;;;;;;;5115626;27;20221;-69
2023/09/22 13:29:27;;;;;;;0.75;0.50;;;;;;;;;;5124650;27;20219;-69
2023/09/22 13:31:54;;;;;;;1.10;0.50;;;;;;;;;;5113776;27;20205;-70
2023/09/22 13:34:23;;;;;;;0.30;0.30;;;;;;;;;;5124035;27;20209;-69
2023/09/22 13:36:50;;;;;;;0.43;0.40;;;;;;;;;;5125400;27;20193;-70
2023/09/22 13:39:17;;;;;;;2.90;0.75;;;;;;;;;;5125108;27;20209;-70
2023/09/22 13:41:44;;;;;;;0.30;0.30;;;;;;;;;;5124229;27;20678;-69
2023/09/22 13:44:11;;;;;;;0.40;0.40;;;;;;;;;;5125045;27;20216;-70
2023/09/22 13:46:38;;;;;;;0.65;0.40;;;;;;;;;;5124246;27;20227;-70
2023/09/22 13:49:05;;;;;;;0.55;0.55;;;;;;;;;;5126692;27;20220;-70
2023/09/22 13:51:34;;;;;;;0.93;0.40;;;;;;;;;;5119254;27;20575;-69
2023/09/22 13:54:01;;;;;;;1.30;0.40;;;;;;;;;;5122363;27;20209;-69
2023/09/22 13:56:28;;;;;;;1.90;0.40;;;;;;;;;;5118209;27;20225;-69
2023/09/22 13:58:55;;;;;;;1.50;0.40;;;;;;;;;;5111362;27;20212;-69
2023/09/22 14:01:22;;;;;;;1.48;0.50;;;;;;;;;;5115976;27;20201;-69
2023/09/22 14:03:50;;;;;;;0.70;0.60;;;;;;;;;;5105826;28;20241;-70
2023/09/22 14:06:17;;;;;;;1.13;0.65;;;;;;;;;;5120545;27;20773;-69
2023/09/22 14:08:46;;;;;;;1.48;0.40;;;;;;;;;;5125998;27;20205;-70
2023/09/22 14:11:13;;;;;;;0.77;0.52;;;;;;;;;;5122673;27;20201;-69
2023/09/22 14:13:40;;;;;;;2.05;0.63;;;;;;;;;;5105271;28;20679;-69
2023/09/22 14:16:08;;;;;;;2.95;0.40;;;;;;;;;;5109380;27;20216;-69
2023/09/22 14:18:35;;;;;;;1.23;0.40;;;;;;;;;;5125933;27;20209;-70
2023/09/22 14:21:03;;;;;;;0.52;0.52;;;;;;;;;;5113533;27;20205;-71
2023/09/22 14:23:30;;;;;;;2.47;0.50;;;;;;;;;;5120225;27;20288;-69
2023/09/22 14:25:59;;;;;;;0.45;0.45;;;;;;;;;;5124894;27;20213;-68
2023/09/22 14:28:27;;;;;;;1.55;0.60;;;;;;;;;;5104650;27;20209;-70
2023/09/22 14:30:54;;;;;;;0.90;0.63;;;;;;;;;;5105523;27;20205;-70
2023/09/22 14:33:21;;;;;;;0.52;0.52;;;;;;;;;;5118866;27;20205;-70
2023/09/22 14:35:48;;;;;;;1.08;0.45;;;;;;;;;;5119540;27;20635;-70
2023/09/22 14:38:15;;;;;;;0.93;0.40;;;;;;;;;;5119811;27;20193;-71
2023/09/22 14:40:42;;;;;;;0.40;0.40;;;;;;;;;;5124330;27;20300;-70
2023/09/22 14:43:10;;;;;;;1.85;0.40;;;;;;;;;;5112180;27;20213;-63
2023/09/22 14:45:38;;;;;;;1.73;0.57;;;;;;;;;;5109721;27;20612;-67
2023/09/22 14:48:05;;;;;;;1.23;0.55;;;;;;;;;;5122775;27;20289;-68
2023/09/22 14:50:33;;;;;;;0.55;0.50;;;;;;;;;;5118554;27;20380;-67